sensor_id;sensor_type;location;lat;lon;timestamp;temperature;humidity
11647;DHT22;5880;52.342;9.662;2023-05-19T00:01:12;14.00;41.90
11647;DHT22;5880;52.342;9.662;2023-05-19T00:03:51;13.90;42.00
11647;DHT22;5880;52.342;9.662;2023-05-19T00:06:29;14.00;42.70
11647;DHT22;5880;52.342;9.662;2023-05-19T00:09:04;13.90;43.20
11647;DHT22;5880;52.342;9.662;2023-05-19T00:11:33;13.90;42.60
11647;DHT22;5880;52.342;9.662;2023-05-19T00:14:07;13.90;42.20
11647;DHT22;5880;52.342;9.662;2023-05-19T00:16:34;13.90;42.40
11647;DHT22;5880;52.342;9.662;2023-05-19T00:19:03;14.10;42.50
11647;DHT22;5880;52.342;9.662;2023-05-19T00:21:30;13.90;42.70
11647;DHT22;5880;52.342;9.662;2023-05-19T00:23:57;13.90;42.60
11647;DHT22;5880;52.342;9.662;2023-05-19T00:26:24;13.90;42.70
11647;DHT22;5880;52.342;9.662;2023-05-19T00:28:52;13.90;42.90
11647;DHT22;5880;52.342;9.662;2023-05-19T00:31:17;13.90;42.90
11647;DHT22;5880;52.342;9.662;2023-05-19T00:33:43;13.80;42.80
11647;DHT22;5880;52.342;9.662;2023-05-19T00:36:09;13.80;42.80
11647;DHT22;5880;52.342;9.662;2023-05-19T00:38:36;13.80;42.90
11647;DHT22;5880;52.342;9.662;2023-05-19T00:41:03;13.70;43.20
11647;DHT22;5880;52.342;9.662;2023-05-19T00:43:30;13.70;43.40
11647;DHT22;5880;52.342;9.662;2023-05-19T00:45:56;13.70;43.40
11647;DHT22;5880;52.342;9.662;2023-05-19T00:48:24;13.60;43.50
11647;DHT22;5880;52.342;9.662;2023-05-19T00:50:52;13.60;43.90
11647;DHT22;5880;52.342;9.662;2023-05-19T00:53:22;13.70;43.80
11647;DHT22;5880;52.342;9.662;2023-05-19T00:55:49;13.60;43.90
11647;DHT22;5880;52.342;9.662;2023-05-19T00:58:15;13.60;43.80
11647;DHT22;5880;52.342;9.662;2023-05-19T01:00:41;13.50;44.00
11647;DHT22;5880;52.342;9.662;2023-05-19T01:03:09;13.50;44.00
11647;DHT22;5880;52.342;9.662;2023-05-19T01:05:41;13.60;44.10
11647;DHT22;5880;52.342;9.662;2023-05-19T01:08:08;13.50;44.60
11647;DHT22;5880;52.342;9.662;2023-05-19T01:10:34;13.50;44.30
11647;DHT22;5880;52.342;9.662;2023-05-19T01:13:02;13.50;44.50
11647;DHT22;5880;52.342;9.662;2023-05-19T01:15:33;13.50;44.80
11647;DHT22;5880;52.342;9.662;2023-05-19T01:18:14;13.50;45.20
11647;DHT22;5880;52.342;9.662;2023-05-19T01:20:57;13.50;45.70
11647;DHT22;5880;52.342;9.662;2023-05-19T01:23:59;13.50;45.10
11647;DHT22;5880;52.342;9.662;2023-05-19T01:27:08;13.50;46.40
11647;DHT22;5880;52.342;9.662;2023-05-19T01:32:52;13.50;46.40
11647;DHT22;5880;52.342;9.662;2023-05-19T01:35:25;13.50;44.80
11647;DHT22;5880;52.342;9.662;2023-05-19T01:37:55;13.40;44.70
11647;DHT22;5880;52.342;9.662;2023-05-19T01:40:23;13.40;45.10
11647;DHT22;5880;52.342;9.662;2023-05-19T01:42:51;13.50;45.10
11647;DHT22;5880;52.342;9.662;2023-05-19T01:45:20;13.40;45.20
11647;DHT22;5880;52.342;9.662;2023-05-19T01:47:48;13.40;45.10
11647;DHT22;5880;52.342;9.662;2023-05-19T01:50:16;13.40;45.40
11647;DHT22;5880;52.342;9.662;2023-05-19T01:52:42;13.30;45.30
11647;DHT22;5880;52.342;9.662;2023-05-19T01:55:08;13.30;45.00
11647;DHT22;5880;52.342;9.662;2023-05-19T01:57:54;13.30;44.90
11647;DHT22;5880;52.342;9.662;2023-05-19T02:06:29;13.20;45.90
11647;DHT22;5880;52.342;9.662;2023-05-19T02:09:11;13.10;46.40
11647;DHT22;5880;52.342;9.662;2023-05-19T02:11:53;13.00;45.20
11647;DHT22;5880;52.342;9.662;2023-05-19T02:14:29;13.00;46.20
11647;DHT22;5880;52.342;9.662;2023-05-19T02:17:00;12.90;45.80
11647;DHT22;5880;52.342;9.662;2023-05-19T02:19:35;12.90;45.30
11647;DHT22;5880;52.342;9.662;2023-05-19T02:22:02;12.80;45.80
11647;DHT22;5880;52.342;9.662;2023-05-19T02:24:28;12.80;45.40
11647;DHT22;5880;52.342;9.662;2023-05-19T02:26:55;12.70;45.60
11647;DHT22;5880;52.342;9.662;2023-05-19T02:29:21;12.70;45.70
11647;DHT22;5880;52.342;9.662;2023-05-19T02:31:50;12.70;45.80
11647;DHT22;5880;52.342;9.662;2023-05-19T02:34:15;12.70;45.90
11647;DHT22;5880;52.342;9.662;2023-05-19T02:36:41;12.60;45.90
11647;DHT22;5880;52.342;9.662;2023-05-19T02:39:08;12.60;45.90
11647;DHT22;5880;52.342;9.662;2023-05-19T02:41:35;12.50;46.10
11647;DHT22;5880;52.342;9.662;2023-05-19T02:44:01;12.50;46.10
11647;DHT22;5880;52.342;9.662;2023-05-19T02:46:27;12.50;46.20
11647;DHT22;5880;52.342;9.662;2023-05-19T02:48:53;12.50;46.20
11647;DHT22;5880;52.342;9.662;2023-05-19T02:51:19;12.50;46.30
11647;DHT22;5880;52.342;9.662;2023-05-19T02:53:45;12.40;46.20
11647;DHT22;5880;52.342;9.662;2023-05-19T02:56:10;12.40;46.30
11647;DHT22;5880;52.342;9.662;2023-05-19T02:58:36;12.40;46.40
11647;DHT22;5880;52.342;9.662;2023-05-19T03:01:02;12.50;46.60
11647;DHT22;5880;52.342;9.662;2023-05-19T03:03:28;12.40;46.50
11647;DHT22;5880;52.342;9.662;2023-05-19T03:05:54;12.30;46.50
11647;DHT22;5880;52.342;9.662;2023-05-19T03:08:19;12.30;46.60
11647;DHT22;5880;52.342;9.662;2023-05-19T03:10:45;12.30;46.70
11647;DHT22;5880;52.342;9.662;2023-05-19T03:13:11;12.30;46.90
11647;DHT22;5880;52.342;9.662;2023-05-19T03:15:37;12.30;46.90
11647;DHT22;5880;52.342;9.662;2023-05-19T03:18:03;12.20;46.70
11647;DHT22;5880;52.342;9.662;2023-05-19T03:20:29;12.20;46.80
11647;DHT22;5880;52.342;9.662;2023-05-19T03:22:56;12.20;46.90
11647;DHT22;5880;52.342;9.662;2023-05-19T03:25:22;12.20;47.10
11647;DHT22;5880;52.342;9.662;2023-05-19T03:27:47;12.20;47.10
11647;DHT22;5880;52.342;9.662;2023-05-19T03:30:13;12.20;47.10
11647;DHT22;5880;52.342;9.662;2023-05-19T03:32:39;12.20;47.30
11647;DHT22;5880;52.342;9.662;2023-05-19T03:35:05;12.10;47.30
11647;DHT22;5880;52.342;9.662;2023-05-19T03:37:31;12.10;47.50
11647;DHT22;5880;52.342;9.662;2023-05-19T03:39:58;12.10;47.60
11647;DHT22;5880;52.342;9.662;2023-05-19T03:42:24;12.10;47.80
11647;DHT22;5880;52.342;9.662;2023-05-19T03:44:50;12.10;47.70
11647;DHT22;5880;52.342;9.662;2023-05-19T03:47:16;12.10;47.70
11647;DHT22;5880;52.342;9.662;2023-05-19T03:49:41;12.10;47.70
11647;DHT22;5880;52.342;9.662;2023-05-19T03:52:07;12.10;47.70
11647;DHT22;5880;52.342;9.662;2023-05-19T03:54:34;12.00;47.60
11647;DHT22;5880;52.342;9.662;2023-05-19T03:57:00;12.00;47.50
11647;DHT22;5880;52.342;9.662;2023-05-19T03:59:26;12.00;47.70
11647;DHT22;5880;52.342;9.662;2023-05-19T04:01:52;12.00;47.70
11647;DHT22;5880;52.342;9.662;2023-05-19T04:04:18;11.90;47.80
11647;DHT22;5880;52.342;9.662;2023-05-19T04:06:44;11.90;48.00
11647;DHT22;5880;52.342;9.662;2023-05-19T04:09:13;11.90;48.20
11647;DHT22;5880;52.342;9.662;2023-05-19T04:11:41;11.80;48.90
11647;DHT22;5880;52.342;9.662;2023-05-19T04:14:07;11.80;48.50
11647;DHT22;5880;52.342;9.662;2023-05-19T04:16:33;11.80;48.50
11647;DHT22;5880;52.342;9.662;2023-05-19T04:18:59;11.80;48.60
11647;DHT22;5880;52.342;9.662;2023-05-19T04:21:25;11.80;48.60
11647;DHT22;5880;52.342;9.662;2023-05-19T04:23:51;11.80;48.70
11647;DHT22;5880;52.342;9.662;2023-05-19T04:26:17;11.80;48.80
11647;DHT22;5880;52.342;9.662;2023-05-19T04:28:45;11.90;49.00
11647;DHT22;5880;52.342;9.662;2023-05-19T04:31:13;11.90;49.10
11647;DHT22;5880;52.342;9.662;2023-05-19T04:33:40;11.80;49.20
11647;DHT22;5880;52.342;9.662;2023-05-19T04:36:06;11.90;49.40
11647;DHT22;5880;52.342;9.662;2023-05-19T04:38:38;11.80;49.30
11647;DHT22;5880;52.342;9.662;2023-05-19T04:41:07;11.80;49.20
11647;DHT22;5880;52.342;9.662;2023-05-19T04:43:36;11.90;49.40
11647;DHT22;5880;52.342;9.662;2023-05-19T04:46:11;11.80;49.30
11647;DHT22;5880;52.342;9.662;2023-05-19T04:48:37;11.90;49.40
11647;DHT22;5880;52.342;9.662;2023-05-19T04:51:04;11.90;49.60
11647;DHT22;5880;52.342;9.662;2023-05-19T04:53:30;11.90;49.50
11647;DHT22;5880;52.342;9.662;2023-05-19T04:55:57;11.90;49.40
11647;DHT22;5880;52.342;9.662;2023-05-19T04:58:23;12.00;49.60
11647;DHT22;5880;52.342;9.662;2023-05-19T05:00:52;12.00;49.50
11647;DHT22;5880;52.342;9.662;2023-05-19T05:03:20;11.90;49.80
11647;DHT22;5880;52.342;9.662;2023-05-19T05:05:47;12.00;49.60
11647;DHT22;5880;52.342;9.662;2023-05-19T05:08:13;12.00;49.60
11647;DHT22;5880;52.342;9.662;2023-05-19T05:10:40;12.00;49.80
11647;DHT22;5880;52.342;9.662;2023-05-19T05:13:06;12.00;49.80
11647;DHT22;5880;52.342;9.662;2023-05-19T05:15:33;12.00;50.20
11647;DHT22;5880;52.342;9.662;2023-05-19T05:18:00;12.00;50.20
11647;DHT22;5880;52.342;9.662;2023-05-19T05:20:26;12.00;50.30
11647;DHT22;5880;52.342;9.662;2023-05-19T05:22:52;12.00;50.50
11647;DHT22;5880;52.342;9.662;2023-05-19T05:25:18;12.10;51.50
11647;DHT22;5880;52.342;9.662;2023-05-19T05:27:44;12.10;51.10
11647;DHT22;5880;52.342;9.662;2023-05-19T05:30:10;12.20;51.30
11647;DHT22;5880;52.342;9.662;2023-05-19T05:32:36;12.30;51.80
11647;DHT22;5880;52.342;9.662;2023-05-19T05:35:02;12.40;52.30
11647;DHT22;5880;52.342;9.662;2023-05-19T05:37:29;12.50;54.00
11647;DHT22;5880;52.342;9.662;2023-05-19T05:39:55;12.80;54.40
11647;DHT22;5880;52.342;9.662;2023-05-19T05:42:20;13.00;55.40
11647;DHT22;5880;52.342;9.662;2023-05-19T05:44:46;13.40;56.40
11647;DHT22;5880;52.342;9.662;2023-05-19T05:47:12;13.90;57.60
11647;DHT22;5880;52.342;9.662;2023-05-19T05:49:38;14.30;58.40
11647;DHT22;5880;52.342;9.662;2023-05-19T05:52:05;14.80;59.10
11647;DHT22;5880;52.342;9.662;2023-05-19T05:54:33;15.50;59.50
11647;DHT22;5880;52.342;9.662;2023-05-19T05:56:59;15.90;60.00
11647;DHT22;5880;52.342;9.662;2023-05-19T05:59:26;16.70;59.60
11647;DHT22;5880;52.342;9.662;2023-05-19T06:01:52;17.50;58.60
11647;DHT22;5880;52.342;9.662;2023-05-19T06:04:18;18.00;57.90
11647;DHT22;5880;52.342;9.662;2023-05-19T06:06:45;18.60;57.00
11647;DHT22;5880;52.342;9.662;2023-05-19T06:09:10;19.30;55.30
11647;DHT22;5880;52.342;9.662;2023-05-19T06:11:36;19.90;54.50
11647;DHT22;5880;52.342;9.662;2023-05-19T06:14:02;20.40;53.60
11647;DHT22;5880;52.342;9.662;2023-05-19T06:16:28;21.00;52.70
11647;DHT22;5880;52.342;9.662;2023-05-19T06:18:54;21.50;50.30
11647;DHT22;5880;52.342;9.662;2023-05-19T06:21:19;21.90;48.90
11647;DHT22;5880;52.342;9.662;2023-05-19T06:23:46;22.30;48.00
11647;DHT22;5880;52.342;9.662;2023-05-19T06:26:11;22.60;46.80
11647;DHT22;5880;52.342;9.662;2023-05-19T06:28:37;23.00;46.70
11647;DHT22;5880;52.342;9.662;2023-05-19T06:31:03;23.40;45.70
11647;DHT22;5880;52.342;9.662;2023-05-19T06:33:28;23.80;44.80
11647;DHT22;5880;52.342;9.662;2023-05-19T06:35:54;24.10;43.10
11647;DHT22;5880;52.342;9.662;2023-05-19T06:38:20;24.40;41.90
11647;DHT22;5880;52.342;9.662;2023-05-19T06:40:47;24.60;41.00
11647;DHT22;5880;52.342;9.662;2023-05-19T06:43:12;24.80;40.40
11647;DHT22;5880;52.342;9.662;2023-05-19T06:45:38;24.90;39.50
11647;DHT22;5880;52.342;9.662;2023-05-19T06:48:04;25.10;38.30
11647;DHT22;5880;52.342;9.662;2023-05-19T06:50:30;25.10;37.60
11647;DHT22;5880;52.342;9.662;2023-05-19T06:52:55;25.10;37.50
11647;DHT22;5880;52.342;9.662;2023-05-19T06:55:22;25.30;37.80
11647;DHT22;5880;52.342;9.662;2023-05-19T06:57:48;25.30;37.10
11647;DHT22;5880;52.342;9.662;2023-05-19T07:00:14;25.40;36.40
11647;DHT22;5880;52.342;9.662;2023-05-19T07:02:41;25.50;36.20
11647;DHT22;5880;52.342;9.662;2023-05-19T07:05:07;25.50;36.60
11647;DHT22;5880;52.342;9.662;2023-05-19T07:07:33;25.60;36.20
11647;DHT22;5880;52.342;9.662;2023-05-19T07:09:59;25.70;35.50
11647;DHT22;5880;52.342;9.662;2023-05-19T07:12:24;25.80;35.50
11647;DHT22;5880;52.342;9.662;2023-05-19T07:14:51;25.80;35.20
11647;DHT22;5880;52.342;9.662;2023-05-19T07:17:17;25.80;35.50
11647;DHT22;5880;52.342;9.662;2023-05-19T07:19:42;25.80;35.50
11647;DHT22;5880;52.342;9.662;2023-05-19T07:22:08;25.90;35.60
11647;DHT22;5880;52.342;9.662;2023-05-19T07:24:34;26.10;35.40
11647;DHT22;5880;52.342;9.662;2023-05-19T07:26:59;26.20;34.10
11647;DHT22;5880;52.342;9.662;2023-05-19T07:29:25;26.20;33.90
11647;DHT22;5880;52.342;9.662;2023-05-19T07:31:51;26.20;33.80
11647;DHT22;5880;52.342;9.662;2023-05-19T07:34:19;26.20;33.90
11647;DHT22;5880;52.342;9.662;2023-05-19T07:36:46;26.30;33.90
11647;DHT22;5880;52.342;9.662;2023-05-19T07:39:11;26.30;33.30
11647;DHT22;5880;52.342;9.662;2023-05-19T07:41:37;26.20;33.10
11647;DHT22;5880;52.342;9.662;2023-05-19T07:44:03;26.20;33.10
11647;DHT22;5880;52.342;9.662;2023-05-19T07:46:32;26.10;33.20
11647;DHT22;5880;52.342;9.662;2023-05-19T07:48:58;26.10;33.20
11647;DHT22;5880;52.342;9.662;2023-05-19T07:51:24;26.10;32.50
11647;DHT22;5880;52.342;9.662;2023-05-19T07:53:50;26.20;31.90
11647;DHT22;5880;52.342;9.662;2023-05-19T07:56:17;25.90;30.10
11647;DHT22;5880;52.342;9.662;2023-05-19T07:58:43;25.60;30.50
11647;DHT22;5880;52.342;9.662;2023-05-19T08:01:09;25.30;30.50
11647;DHT22;5880;52.342;9.662;2023-05-19T08:03:34;24.90;30.70
11647;DHT22;5880;52.342;9.662;2023-05-19T08:06:00;24.60;30.80
11647;DHT22;5880;52.342;9.662;2023-05-19T08:08:26;24.20;30.90
11647;DHT22;5880;52.342;9.662;2023-05-19T08:10:51;24.40;31.40
11647;DHT22;5880;52.342;9.662;2023-05-19T08:13:17;23.70;31.70
11647;DHT22;5880;52.342;9.662;2023-05-19T08:15:43;23.40;31.30
11647;DHT22;5880;52.342;9.662;2023-05-19T08:18:08;23.10;31.40
11647;DHT22;5880;52.342;9.662;2023-05-19T08:20:34;23.30;32.10
11647;DHT22;5880;52.342;9.662;2023-05-19T08:23:00;22.80;32.60
11647;DHT22;5880;52.342;9.662;2023-05-19T08:25:26;22.70;33.00
11647;DHT22;5880;52.342;9.662;2023-05-19T08:27:52;22.60;33.30
11647;DHT22;5880;52.342;9.662;2023-05-19T08:30:17;22.50;33.40
11647;DHT22;5880;52.342;9.662;2023-05-19T08:32:43;22.40;33.60
11647;DHT22;5880;52.342;9.662;2023-05-19T08:35:09;22.40;33.40
11647;DHT22;5880;52.342;9.662;2023-05-19T08:37:35;22.30;33.40
11647;DHT22;5880;52.342;9.662;2023-05-19T08:40:02;22.20;33.40
11647;DHT22;5880;52.342;9.662;2023-05-19T08:42:30;22.20;33.50
11647;DHT22;5880;52.342;9.662;2023-05-19T08:44:59;22.10;32.90
11647;DHT22;5880;52.342;9.662;2023-05-19T08:47:26;22.10;33.30
11647;DHT22;5880;52.342;9.662;2023-05-19T08:50:02;22.00;33.60
11647;DHT22;5880;52.342;9.662;2023-05-19T08:56:05;22.00;33.40
11647;DHT22;5880;52.342;9.662;2023-05-19T08:58:38;21.90;33.50
11647;DHT22;5880;52.342;9.662;2023-05-19T09:01:06;21.80;33.10
11647;DHT22;5880;52.342;9.662;2023-05-19T09:03:33;21.80;33.70
11647;DHT22;5880;52.342;9.662;2023-05-19T09:06:06;21.70;33.30
11647;DHT22;5880;52.342;9.662;2023-05-19T09:08:33;21.60;33.00
11647;DHT22;5880;52.342;9.662;2023-05-19T09:10:59;21.60;32.80
11647;DHT22;5880;52.342;9.662;2023-05-19T09:13:25;21.60;32.80
11647;DHT22;5880;52.342;9.662;2023-05-19T09:15:52;21.50;32.90
11647;DHT22;5880;52.342;9.662;2023-05-19T09:18:17;21.50;33.30
11647;DHT22;5880;52.342;9.662;2023-05-19T09:20:44;21.50;33.70
11647;DHT22;5880;52.342;9.662;2023-05-19T09:23:15;21.70;33.50
11647;DHT22;5880;52.342;9.662;2023-05-19T09:25:51;21.50;33.00
11647;DHT22;5880;52.342;9.662;2023-05-19T09:28:28;21.50;33.10
11647;DHT22;5880;52.342;9.662;2023-05-19T09:31:05;21.50;33.00
11647;DHT22;5880;52.342;9.662;2023-05-19T09:33:36;21.40;33.10
11647;DHT22;5880;52.342;9.662;2023-05-19T09:36:04;21.40;33.20
11647;DHT22;5880;52.342;9.662;2023-05-19T09:38:32;21.40;33.30
11647;DHT22;5880;52.342;9.662;2023-05-19T09:40:59;21.30;33.30
11647;DHT22;5880;52.342;9.662;2023-05-19T09:43:27;21.30;33.20
11647;DHT22;5880;52.342;9.662;2023-05-19T09:46:08;21.30;33.20
11647;DHT22;5880;52.342;9.662;2023-05-19T09:48:37;21.20;33.30
11647;DHT22;5880;52.342;9.662;2023-05-19T09:51:04;21.20;33.70
11647;DHT22;5880;52.342;9.662;2023-05-19T09:53:33;21.20;33.70
11647;DHT22;5880;52.342;9.662;2023-05-19T09:56:00;21.30;33.60
11647;DHT22;5880;52.342;9.662;2023-05-19T09:58:31;21.30;33.50
11647;DHT22;5880;52.342;9.662;2023-05-19T10:01:02;21.30;33.30
11647;DHT22;5880;52.342;9.662;2023-05-19T10:03:28;20.90;32.40
11647;DHT22;5880;52.342;9.662;2023-05-19T10:05:57;21.20;32.70
11647;DHT22;5880;52.342;9.662;2023-05-19T10:08:27;21.20;32.90
11647;DHT22;5880;52.342;9.662;2023-05-19T10:10:54;21.20;32.80
11647;DHT22;5880;52.342;9.662;2023-05-19T10:13:22;21.20;32.70
11647;DHT22;5880;52.342;9.662;2023-05-19T10:15:49;21.20;32.60
11647;DHT22;5880;52.342;9.662;2023-05-19T10:18:17;21.20;33.00
11647;DHT22;5880;52.342;9.662;2023-05-19T10:20:43;21.30;33.50
11647;DHT22;5880;52.342;9.662;2023-05-19T10:23:10;21.20;32.80
11647;DHT22;5880;52.342;9.662;2023-05-19T10:25:36;21.20;32.90
11647;DHT22;5880;52.342;9.662;2023-05-19T10:28:12;21.20;32.40
11647;DHT22;5880;52.342;9.662;2023-05-19T10:30:42;21.30;32.00
11647;DHT22;5880;52.342;9.662;2023-05-19T10:33:13;21.30;32.60
11647;DHT22;5880;52.342;9.662;2023-05-19T10:35:46;21.20;32.00
11647;DHT22;5880;52.342;9.662;2023-05-19T10:38:52;21.30;32.40
11647;DHT22;5880;52.342;9.662;2023-05-19T10:47:29;21.40;30.30
11647;DHT22;5880;52.342;9.662;2023-05-19T10:49:59;21.40;31.50
11647;DHT22;5880;52.342;9.662;2023-05-19T10:52:25;21.40;31.60
11647;DHT22;5880;52.342;9.662;2023-05-19T10:54:54;21.40;31.80
11647;DHT22;5880;52.342;9.662;2023-05-19T10:57:26;21.40;31.30
11647;DHT22;5880;52.342;9.662;2023-05-19T10:59:54;21.40;31.20
11647;DHT22;5880;52.342;9.662;2023-05-19T11:02:39;21.40;31.70
11647;DHT22;5880;52.342;9.662;2023-05-19T11:05:08;21.40;30.50
11647;DHT22;5880;52.342;9.662;2023-05-19T11:07:35;21.40;30.70
11647;DHT22;5880;52.342;9.662;2023-05-19T11:10:05;21.30;31.40
11647;DHT22;5880;52.342;9.662;2023-05-19T11:12:39;21.30;31.40
11647;DHT22;5880;52.342;9.662;2023-05-19T11:15:13;21.40;31.40
11647;DHT22;5880;52.342;9.662;2023-05-19T11:17:40;21.50;31.70
11647;DHT22;5880;52.342;9.662;2023-05-19T11:20:23;21.50;31.80
11647;DHT22;5880;52.342;9.662;2023-05-19T11:23:13;21.50;30.90
11647;DHT22;5880;52.342;9.662;2023-05-19T11:25:44;21.60;30.50
11647;DHT22;5880;52.342;9.662;2023-05-19T11:28:10;21.60;30.70
11647;DHT22;5880;52.342;9.662;2023-05-19T11:30:39;21.70;30.80
11647;DHT22;5880;52.342;9.662;2023-05-19T11:33:06;21.70;31.50
11647;DHT22;5880;52.342;9.662;2023-05-19T11:35:33;21.80;31.60
11647;DHT22;5880;52.342;9.662;2023-05-19T11:38:00;21.80;31.00
11647;DHT22;5880;52.342;9.662;2023-05-19T11:40:28;21.90;30.70
11647;DHT22;5880;52.342;9.662;2023-05-19T11:42:54;22.00;30.00
11647;DHT22;5880;52.342;9.662;2023-05-19T11:45:24;22.00;30.30
11647;DHT22;5880;52.342;9.662;2023-05-19T11:47:50;22.70;30.10
11647;DHT22;5880;52.342;9.662;2023-05-19T11:50:17;22.10;30.40
11647;DHT22;5880;52.342;9.662;2023-05-19T11:52:43;22.10;30.30
11647;DHT22;5880;52.342;9.662;2023-05-19T11:55:17;22.10;30.00
11647;DHT22;5880;52.342;9.662;2023-05-19T11:58:02;22.10;29.60
11647;DHT22;5880;52.342;9.662;2023-05-19T12:00:29;22.10;29.10
11647;DHT22;5880;52.342;9.662;2023-05-19T12:03:03;22.10;29.10
11647;DHT22;5880;52.342;9.662;2023-05-19T12:05:30;22.10;29.70
11647;DHT22;5880;52.342;9.662;2023-05-19T12:07:56;22.10;29.50
11647;DHT22;5880;52.342;9.662;2023-05-19T12:10:23;22.00;28.90
11647;DHT22;5880;52.342;9.662;2023-05-19T12:12:51;22.10;28.90
11647;DHT22;5880;52.342;9.662;2023-05-19T12:15:21;22.00;28.90
11647;DHT22;5880;52.342;9.662;2023-05-19T12:17:49;22.10;29.00
11647;DHT22;5880;52.342;9.662;2023-05-19T12:20:19;22.00;28.80
11647;DHT22;5880;52.342;9.662;2023-05-19T12:22:46;22.00;29.00
11647;DHT22;5880;52.342;9.662;2023-05-19T12:25:13;22.10;30.10
11647;DHT22;5880;52.342;9.662;2023-05-19T12:27:42;22.10;29.70
11647;DHT22;5880;52.342;9.662;2023-05-19T12:30:09;22.10;29.10
11647;DHT22;5880;52.342;9.662;2023-05-19T12:32:36;22.10;28.20
11647;DHT22;5880;52.342;9.662;2023-05-19T12:35:04;22.20;28.80
11647;DHT22;5880;52.342;9.662;2023-05-19T12:37:31;22.10;29.20
11647;DHT22;5880;52.342;9.662;2023-05-19T12:39:59;22.20;29.50
11647;DHT22;5880;52.342;9.662;2023-05-19T12:42:26;22.20;28.90
11647;DHT22;5880;52.342;9.662;2023-05-19T12:44:56;22.30;28.90
11647;DHT22;5880;52.342;9.662;2023-05-19T12:47:29;22.30;28.70
11647;DHT22;5880;52.342;9.662;2023-05-19T12:50:08;22.30;28.90
11647;DHT22;5880;52.342;9.662;2023-05-19T12:52:43;22.40;28.30
11647;DHT22;5880;52.342;9.662;2023-05-19T12:55:10;22.40;27.20
11647;DHT22;5880;52.342;9.662;2023-05-19T12:57:37;22.40;27.70
11647;DHT22;5880;52.342;9.662;2023-05-19T13:00:11;22.30;27.80
11647;DHT22;5880;52.342;9.662;2023-05-19T13:05:38;22.30;27.10
11647;DHT22;5880;52.342;9.662;2023-05-19T13:08:13;22.20;27.90
11647;DHT22;5880;52.342;9.662;2023-05-19T13:10:40;22.20;27.40
11647;DHT22;5880;52.342;9.662;2023-05-19T13:13:08;22.20;28.30
11647;DHT22;5880;52.342;9.662;2023-05-19T13:15:38;22.10;28.50
11647;DHT22;5880;52.342;9.662;2023-05-19T13:18:07;22.10;28.30
11647;DHT22;5880;52.342;9.662;2023-05-19T13:20:37;22.10;29.00
11647;DHT22;5880;52.342;9.662;2023-05-19T13:23:04;22.10;28.70
11647;DHT22;5880;52.342;9.662;2023-05-19T13:25:33;22.20;28.40
11647;DHT22;5880;52.342;9.662;2023-05-19T13:28:01;22.20;28.00
11647;DHT22;5880;52.342;9.662;2023-05-19T13:30:30;22.30;27.70
11647;DHT22;5880;52.342;9.662;2023-05-19T13:32:57;22.20;28.10
11647;DHT22;5880;52.342;9.662;2023-05-19T13:35:23;22.20;28.30
11647;DHT22;5880;52.342;9.662;2023-05-19T13:37:49;22.20;27.80
11647;DHT22;5880;52.342;9.662;2023-05-19T13:40:15;22.20;28.50
11647;DHT22;5880;52.342;9.662;2023-05-19T13:42:43;22.40;28.50
11647;DHT22;5880;52.342;9.662;2023-05-19T13:45:09;22.80;28.30
11647;DHT22;5880;52.342;9.662;2023-05-19T13:47:35;22.40;27.80
11647;DHT22;5880;52.342;9.662;2023-05-19T13:50:03;22.50;27.70
11647;DHT22;5880;52.342;9.662;2023-05-19T13:52:29;22.50;27.90
11647;DHT22;5880;52.342;9.662;2023-05-19T13:54:55;22.50;27.30
11647;DHT22;5880;52.342;9.662;2023-05-19T13:57:25;23.40;27.80
11647;DHT22;5880;52.342;9.662;2023-05-19T13:59:51;22.40;28.00
11647;DHT22;5880;52.342;9.662;2023-05-19T14:02:17;22.40;28.00
11647;DHT22;5880;52.342;9.662;2023-05-19T14:04:43;22.40;27.50
11647;DHT22;5880;52.342;9.662;2023-05-19T14:07:09;22.40;27.20
11647;DHT22;5880;52.342;9.662;2023-05-19T14:09:35;22.30;27.20
11647;DHT22;5880;52.342;9.662;2023-05-19T14:12:01;22.20;27.30
11647;DHT22;5880;52.342;9.662;2023-05-19T14:14:27;22.20;27.50
11647;DHT22;5880;52.342;9.662;2023-05-19T14:16:52;22.40;27.40
11647;DHT22;5880;52.342;9.662;2023-05-19T14:19:18;22.10;28.20
11647;DHT22;5880;52.342;9.662;2023-05-19T14:21:44;22.10;28.30
11647;DHT22;5880;52.342;9.662;2023-05-19T14:24:10;22.20;28.00
11647;DHT22;5880;52.342;9.662;2023-05-19T14:26:35;22.20;27.10
11647;DHT22;5880;52.342;9.662;2023-05-19T14:29:02;22.20;27.20
11647;DHT22;5880;52.342;9.662;2023-05-19T14:31:27;22.20;27.80
11647;DHT22;5880;52.342;9.662;2023-05-19T14:33:53;22.20;27.20
11647;DHT22;5880;52.342;9.662;2023-05-19T14:36:19;22.20;26.80
11647;DHT22;5880;52.342;9.662;2023-05-19T14:38:44;22.10;27.90
11647;DHT22;5880;52.342;9.662;2023-05-19T14:41:10;22.10;27.70
11647;DHT22;5880;52.342;9.662;2023-05-19T14:43:36;22.10;27.70
11647;DHT22;5880;52.342;9.662;2023-05-19T14:46:02;22.10;28.10
11647;DHT22;5880;52.342;9.662;2023-05-19T14:48:27;22.10;27.90
11647;DHT22;5880;52.342;9.662;2023-05-19T14:50:53;22.10;27.80
11647;DHT22;5880;52.342;9.662;2023-05-19T14:53:19;22.10;27.60
11647;DHT22;5880;52.342;9.662;2023-05-19T14:55:46;22.10;26.90
11647;DHT22;5880;52.342;9.662;2023-05-19T14:58:14;22.10;27.30
11647;DHT22;5880;52.342;9.662;2023-05-19T15:00:41;22.10;27.20
11647;DHT22;5880;52.342;9.662;2023-05-19T15:03:07;22.10;27.00
11647;DHT22;5880;52.342;9.662;2023-05-19T15:05:33;22.10;27.20
11647;DHT22;5880;52.342;9.662;2023-05-19T15:08:01;22.20;27.30
11647;DHT22;5880;52.342;9.662;2023-05-19T15:10:26;22.10;27.50
11647;DHT22;5880;52.342;9.662;2023-05-19T15:12:52;22.10;27.20
11647;DHT22;5880;52.342;9.662;2023-05-19T15:15:18;22.10;27.30
11647;DHT22;5880;52.342;9.662;2023-05-19T15:17:43;22.00;27.30
11647;DHT22;5880;52.342;9.662;2023-05-19T15:20:11;22.10;27.40
11647;DHT22;5880;52.342;9.662;2023-05-19T15:22:37;22.10;27.20
11647;DHT22;5880;52.342;9.662;2023-05-19T15:25:03;22.10;27.10
11647;DHT22;5880;52.342;9.662;2023-05-19T15:27:30;22.10;26.60
11647;DHT22;5880;52.342;9.662;2023-05-19T15:29:55;22.10;26.80
11647;DHT22;5880;52.342;9.662;2023-05-19T15:32:22;22.10;27.10
11647;DHT22;5880;52.342;9.662;2023-05-19T15:34:48;22.10;26.80
11647;DHT22;5880;52.342;9.662;2023-05-19T15:37:14;22.10;26.90
11647;DHT22;5880;52.342;9.662;2023-05-19T15:39:39;22.20;26.90
11647;DHT22;5880;52.342;9.662;2023-05-19T15:42:05;22.20;27.20
11647;DHT22;5880;52.342;9.662;2023-05-19T15:44:31;22.20;27.10
11647;DHT22;5880;52.342;9.662;2023-05-19T15:46:56;22.20;27.20
11647;DHT22;5880;52.342;9.662;2023-05-19T15:49:22;22.20;27.10
11647;DHT22;5880;52.342;9.662;2023-05-19T15:51:49;22.20;27.00
11647;DHT22;5880;52.342;9.662;2023-05-19T15:54:15;22.20;26.90
11647;DHT22;5880;52.342;9.662;2023-05-19T15:56:40;22.20;26.80
11647;DHT22;5880;52.342;9.662;2023-05-19T15:59:06;22.20;27.00
11647;DHT22;5880;52.342;9.662;2023-05-19T16:01:32;22.10;27.30
11647;DHT22;5880;52.342;9.662;2023-05-19T16:03:57;22.20;27.10
11647;DHT22;5880;52.342;9.662;2023-05-19T16:06:24;22.10;27.10
11647;DHT22;5880;52.342;9.662;2023-05-19T16:08:51;22.10;27.30
11647;DHT22;5880;52.342;9.662;2023-05-19T16:11:17;22.10;27.50